Terminal Aerodrome Forecast
Issued by NWS Shreveport, LA

Home | Current Version | Previous Version | Text Only | Print | Product List | Glossary On
Versions: 1 2 3 4 5 6 7 8 9 10 11 12 13 14 15
562
FTUS44 KSHV 202332
TAFTYR
TAF
KTYR 202332Z 2100/2124 28007KT P6SM -SHRA VCTS SCT030CB BKN100
     FM210300 VRB03KT P6SM BKN120 BKN250
     FM211100 VRB03KT 5SM BR FEW012 SCT250
     FM211400 VRB03KT P6SM SCT012 SCT250
     FM211600 VRB03KT P6SM SCT030 SCT250
     FM211800 VRB04KT P6SM VCTS BKN040CB BKN250=

USA.gov is the U.S. government's official web portal to all federal, state and local government web resources and services.